D/T METAR WX W/DIR W/SPE G/SPE TEMP DEWP
22/01/20 06:50 EGVO 220650Z 05002KT 0250 FG VV/// 03/03 Q1037 RED FG NE (50°) 2.3mph 3°C 3°C
22/01/20 05:50 EGVO 220550Z 08001KT 0300 FG VV/// 03/03 Q1037 RMK RED FG E (80°) 1.2mph 3°C 3°C
22/01/20 04:50 EGVO 220450Z 36002KT 5000 BR OVC002 03/02 Q1037 RMK AMB BR N (360°) 2.3mph 3°C 2°C
22/01/20 03:50 EGVO 220350Z AUTO 31003KT 6000 BR OVC005/// 02/02 Q1037 BR NW (310°) 3.5mph 2°C 2°C
22/01/20 02:50 EGVO 220250Z AUTO 31004KT 8000 BR OVC009/// 02/02 Q1037 BR NW (310°) 4.6mph 2°C 2°C
22/01/20 01:50 EGVO 220150Z AUTO 26002KT 9999 OVC012/// 02/02 Q1038 W (260°) 2.3mph 2°C 2°C
22/01/20 00:50 EGVO 220050Z 26003KT 9999 OVC014 02/01 Q1038 RMK GRN W (260°) 3.5mph 2°C 1°C
21/01/20 23:50 EGVO 212350Z 27003KT 9999 BKN018 02/01 Q1039 RMK WHT W (270°) 3.5mph 2°C 1°C
21/01/20 22:50 EGVO 212250Z 29003KT 9999 BKN018 01/01 Q1039 RMK WHT WNW (290°) 3.5mph 1°C 1°C
21/01/20 21:50 EGVO 212150Z 28005KT CAVOK 02/01 Q1039 RMK BLU W (280°) 5.8mph 2°C 1°C
21/01/20 20:50 EGVO 212050Z 26004KT CAVOK 02/01 Q1039 RMK BLU W (260°) 4.6mph 2°C 1°C
21/01/20 19:50 EGVO 211950Z 25004KT CAVOK 01/00 Q1039 NOSIG RMK BLU BLU WSW (250°) 4.6mph 1°C 0°C
21/01/20 19:24 EGVO 211924Z 24004KT CAVOK 02/01 Q1039 NOSIG RMK BLU BLU WSW (240°) 4.6mph 2°C 1°C
21/01/20 18:50 EGVO 211850Z 23003KT CAVOK 02/00 Q1039 NOSIG RMK BLU BLU SW (230°) 3.5mph 2°C 0°C
21/01/20 18:20 EGVO 211820Z 24002KT CAVOK 02/01 Q1039 NOSIG RMK BLU BLU WSW (240°) 2.3mph 2°C 1°C
21/01/20 17:50 EGVO 211750Z 29002KT CAVOK 02/01 Q1039 BLU NOSIG RMK BLU BLU WNW (290°) 2.3mph 2°C 1°C
21/01/20 17:21 EGVO 211721Z 31003KT 9999 FEW012 04/02 Q1039 NOSIG RMK BLU BLU NW (310°) 3.5mph 4°C 2°C
21/01/20 16:50 EGVO 211650Z 32003KT CAVOK 04/02 Q1039 NOSIG RMK BLU BLU NW (320°) 3.5mph 4°C 2°C
21/01/20 16:20 EGVO 211620Z 35003KT CAVOK 05/02 Q1040 NOSIG RMK BLU BLU N (350°) 3.5mph 5°C 2°C
21/01/20 15:50 EGVO 211550Z 36003KT 9999 FEW012 06/02 Q1040 NOSIG RMK BLU BLU N (360°) 3.5mph 6°C 2°C
21/01/20 15:20 EGVO 211520Z 01002KT 9999 FEW012 07/02 Q1040 NOSIG RMK BLU BLU N (10°) 2.3mph 7°C 2°C
21/01/20 14:50 EGVO 211450Z 36004KT 9999 FEW012 07/02 Q1040 NOSIG RMK BLU BLU N (360°) 4.6mph 7°C 2°C
21/01/20 14:21 EGVO 211421Z 02003KT CAVOK 07/03 Q1040 NOSIG RMK BLU BLU NNE (20°) 3.5mph 7°C 3°C
21/01/20 13:50 EGVO 211350Z 36005KT CAVOK 07/02 Q1040 NOSIG RMK BLU BLU N (360°) 5.8mph 7°C 2°C
21/01/20 13:20 EGVO 211320Z 35005KT CAVOK 07/03 Q1040 NOSIG RMK BLU BLU N (350°) 5.8mph 7°C 3°C
21/01/20 12:50 EGVO 211250Z 31004KT CAVOK 06/03 Q1041 NOSIG RMK BLU BLU NW (310°) 4.6mph 6°C 3°C
21/01/20 12:20 EGVO 211220Z 32002KT CAVOK 06/03 Q1041 NOSIG RMK BLU BLU NW (320°) 2.3mph 6°C 3°C
21/01/20 11:50 EGVO 211150Z 19002KT CAVOK 05/04 Q1042 NOSIG RMK BLU BLU S (190°) 2.3mph 5°C 4°C
21/01/20 11:20 EGVO 211120Z 23002KT 9999 BR FEW016 04/04 Q1042 NOSIG RMK BLU BLU BR SW (230°) 2.3mph 4°C 4°C
21/01/20 10:50 EGVO 211050Z 25001KT 8000 5000E BR SCT015 02/02 Q1042 TEMPO 8000 FEW015 RMK WHT TEMPO BLU BR WSW (250°) 1.2mph 2°C 2°C
21/01/20 10:36 EGVO 211036Z 26001KT 8000 5000E BR SCT015 01/01 Q1042 BECMG 8000 RMK WHT BECMG WHT BR W (260°) 1.2mph 1°C 1°C
21/01/20 10:03 EGVO 211003Z 23002KT 6000 3000E BR FEW001 BKN015 00/00 Q1042 BECMG 7000 RMK YLO1 TEMPO WHT BR SW (230°) 2.3mph 0°C 0°C
21/01/20 09:32 EGVO 210932Z 28004KT 0700 FG FEW001 00/00 Q1042 BECMG 3000 BR RMK RED BECMG YLO1 FG W (280°) 4.6mph 0°C 0°C
21/01/20 09:14 EGVO 210914Z 28003KT 1200 BR FEW001 M00/M00 Q1042 BECMG 3000 RMK AMB BECMG YLO1 BR W (280°) 3.5mph 0°C 0°C
21/01/20 08:20 EGVO 210820Z 23004KT 0400 FZFG SKC M02/M02 Q1042 NOSIG RMK RED RED FZFG SW (230°) 4.6mph -2°C -2°C
21/01/20 07:50 EGVO 210750Z 24003KT 0400 FZFG SKC M02/M03 Q1042 NOSIG RMK RED RED FZFG WSW (240°) 3.5mph -2°C -3°C
21/01/20 06:50 EGVO 210650Z 25003KT 0500 FZFG SKC M02/M02 Q1042 RMK RED FZFG WSW (250°) 3.5mph -2°C -2°C
21/01/20 05:50 EGVO 210550Z 22003KT 0400 FZFG SKC M03/M03 Q1042 RMK RED FZFG SW (220°) 3.5mph -3°C -3°C
21/01/20 04:50 EGVO 210450Z 27003KT 0400 FZFG SKC M02/M02 Q1042 RMK RED FZFG W (270°) 3.5mph -2°C -2°C
21/01/20 03:50 EGVO 210350Z 23002KT 0800 FZFG SKC M03/M03 Q1042 RMK AMB FZFG SW (230°) 2.3mph -3°C -3°C
21/01/20 02:50 EGVO 210250Z 25003KT 9000 3000N BR SKC M01/M01 Q1042 RMK YLO1 BR WSW (250°) 3.5mph -1°C -1°C
21/01/20 01:50 EGVO 210150Z 22002KT 9000 3000N BR SKC M02/M02 Q1043 RMK YLO1 BR SW (220°) 2.3mph -2°C -2°C
21/01/20 00:50 EGVO 210050Z 21003KT CAVOK M00/M00 Q1043 RMK BLU SSW (210°) 3.5mph 0°C 0°C
20/01/20 23:50 EGVO 202350Z 23001KT CAVOK M02/M03 Q1044 RMK BLU SW (230°) 1.2mph -2°C -3°C
20/01/20 22:50 EGVO 202250Z 29002KT CAVOK M02/M03 Q1044 RMK BLU WNW (290°) 2.3mph -2°C -3°C
20/01/20 21:50 EGVO 202150Z 28005KT CAVOK 01/M00 Q1044 RMK BLU W (280°) 5.8mph 1°C 0°C
20/01/20 20:50 EGVO 202050Z 23003KT CAVOK 01/M00 Q1045 RMK BLU SW (230°) 3.5mph 1°C 0°C
20/01/20 20:25 EGVO 202025Z 25005KT CAVOK 01/00 Q1044 NOSIG RMK BLU BLU WSW (250°) 5.8mph 1°C 0°C